createdAt,value
2023-01-23T00:01:25.732Z,1.17
2023-01-23T00:04:41.851Z,1.20
2023-01-23T00:07:58.119Z,1.16
2023-01-23T00:11:19.131Z,1.11
2023-01-23T00:14:36.114Z,1.09
2023-01-23T00:17:53.020Z,1.11
2023-01-23T00:21:14.665Z,1.15
2023-01-23T00:24:30.934Z,1.18
2023-01-23T00:27:47.003Z,1.16
2023-01-23T00:31:09.687Z,1.21
2023-01-23T00:34:26.191Z,1.19
2023-01-23T00:37:43.337Z,1.15
2023-01-23T00:41:00.008Z,1.13
2023-01-23T00:44:16.330Z,1.12
2023-01-23T00:47:32.576Z,1.17
2023-01-23T00:50:49.400Z,1.14
2023-01-23T00:54:05.616Z,1.18
2023-01-23T00:57:21.816Z,1.22
2023-01-23T01:00:40.670Z,1.25
2023-01-23T01:03:56.940Z,1.23
2023-01-23T01:07:13.390Z,0.99
2023-01-23T01:10:32.461Z,1.05
2023-01-23T01:13:49.359Z,1.12
2023-01-23T01:17:09.330Z,1.08
2023-01-23T01:20:35.261Z,1.09
2023-01-23T01:23:52.597Z,1.04
2023-01-23T01:27:08.847Z,1.10
2023-01-23T01:30:27.853Z,1.13
2023-01-23T01:33:44.971Z,1.10
2023-01-23T01:37:01.370Z,1.04
2023-01-23T01:40:26.826Z,1.04
2023-01-23T01:43:43.154Z,0.92
2023-01-23T01:46:59.930Z,0.99
2023-01-23T01:50:16.982Z,1.00
2023-01-23T01:53:36.768Z,0.99
2023-01-23T01:56:58.836Z,0.90
2023-01-23T02:00:21.282Z,0.85
2023-01-23T02:03:38.471Z,0.83
2023-01-23T02:06:55.083Z,0.80
2023-01-23T02:10:15.114Z,0.88
2023-01-23T02:13:37.744Z,0.87
2023-01-23T02:16:58.021Z,0.76
2023-01-23T02:20:21.605Z,0.79
2023-01-23T02:23:44.381Z,0.78
2023-01-23T02:27:04.032Z,0.82
2023-01-23T02:30:23.326Z,0.91
2023-01-23T02:33:59.550Z,0.94
2023-01-23T02:37:16.851Z,0.97
2023-01-23T02:40:43.541Z,0.97
2023-01-23T02:44:08.458Z,0.93
2023-01-23T02:47:26.170Z,0.79
2023-01-23T02:50:46.679Z,0.66
2023-01-23T02:54:02.829Z,0.74
2023-01-23T02:57:18.949Z,0.79
2023-01-23T03:00:35.264Z,0.85
2023-01-23T03:03:53.563Z,0.83
2023-01-23T03:07:09.511Z,0.83
2023-01-23T03:10:26.335Z,0.89
2023-01-23T03:13:44.270Z,0.96
2023-01-23T03:17:00.835Z,0.92
2023-01-23T03:20:25.063Z,0.86
2023-01-23T03:23:45.461Z,0.86
2023-01-23T03:27:01.884Z,0.84
2023-01-23T03:30:22.700Z,0.82
2023-01-23T03:33:40.589Z,0.82
2023-01-23T03:36:56.831Z,0.88
2023-01-23T03:40:31.665Z,0.91
2023-01-23T03:43:47.872Z,0.86
2023-01-23T03:47:04.108Z,0.84
2023-01-23T03:50:21.381Z,0.83
2023-01-23T03:53:37.854Z,0.83
2023-01-23T03:56:54.639Z,0.81
2023-01-23T04:00:24.756Z,0.82
2023-01-23T04:03:48.407Z,0.85
2023-01-23T04:07:04.943Z,0.93
2023-01-23T04:10:21.537Z,1.00
2023-01-23T04:13:42.238Z,1.05
2023-01-23T04:17:02.596Z,1.11
2023-01-23T04:20:21.027Z,1.17
2023-01-23T04:23:38.350Z,1.16
2023-01-23T04:26:54.672Z,1.21
2023-01-23T04:30:14.611Z,1.21
2023-01-23T04:33:31.160Z,1.02
2023-01-23T04:36:47.635Z,1.03
2023-01-23T04:40:04.028Z,0.97
2023-01-23T04:43:21.958Z,0.95
2023-01-23T04:46:40.218Z,1.06
2023-01-23T04:49:58.066Z,1.15
2023-01-23T04:53:15.467Z,1.18
2023-01-23T04:56:31.780Z,1.23
2023-01-23T04:59:49.639Z,1.25
2023-01-23T05:03:07.163Z,1.17
2023-01-23T05:06:23.505Z,1.20
2023-01-23T05:09:40.289Z,1.20
2023-01-23T05:12:58.093Z,1.23
2023-01-23T05:16:15.139Z,1.23
2023-01-23T05:19:39.512Z,1.26
2023-01-23T05:22:58.718Z,1.29
2023-01-23T05:26:16.653Z,1.32
2023-01-23T05:29:32.892Z,1.29
2023-01-23T05:32:51.295Z,1.26
2023-01-23T05:36:11.278Z,1.29
2023-01-23T05:39:27.621Z,1.31
2023-01-23T05:42:44.753Z,1.32
2023-01-23T05:46:13.627Z,1.22
2023-01-23T05:49:31.962Z,1.19
2023-01-23T05:52:48.794Z,1.18
2023-01-23T05:56:05.440Z,1.24
2023-01-23T05:59:22.827Z,1.25
2023-01-23T06:02:41.243Z,1.22
2023-01-23T06:06:00.121Z,1.22
2023-01-23T06:09:16.622Z,1.16
2023-01-23T06:12:33.326Z,1.22
2023-01-23T06:15:49.822Z,1.19
2023-01-23T06:19:07.363Z,1.23
2023-01-23T06:22:25.425Z,1.28
2023-01-23T06:25:46.343Z,1.35
2023-01-23T06:29:03.160Z,1.28
2023-01-23T06:32:19.607Z,1.18
2023-01-23T06:35:37.375Z,1.11
2023-01-23T06:38:54.630Z,1.15
2023-01-23T06:42:12.648Z,1.20
2023-01-23T06:45:30.761Z,1.27
2023-01-23T06:48:47.168Z,1.33
2023-01-23T06:52:03.407Z,1.37
2023-01-23T06:55:21.681Z,1.39
2023-01-23T06:58:39.506Z,1.41
2023-01-23T07:01:57.697Z,1.44
2023-01-23T07:05:16.774Z,1.47
2023-01-23T07:08:34.014Z,1.48
2023-01-23T07:11:50.912Z,1.51
2023-01-23T07:15:07.965Z,1.53
2023-01-23T07:18:28.966Z,1.51
2023-01-23T07:21:45.131Z,1.47
2023-01-23T07:25:04.393Z,1.47
2023-01-23T07:28:23.856Z,1.47
2023-01-23T07:31:41.830Z,1.49
2023-01-23T07:35:05.805Z,1.51
2023-01-23T07:38:24.242Z,1.50
2023-01-23T07:41:41.589Z,1.50
2023-01-23T07:44:58.862Z,1.50
2023-01-23T07:48:15.023Z,1.54
2023-01-23T07:51:34.276Z,1.51
2023-01-23T07:54:50.325Z,1.54
2023-01-23T07:58:06.877Z,1.48
2023-01-23T08:01:24.286Z,1.51
2023-01-23T08:04:41.924Z,1.50
2023-01-23T08:08:12.102Z,1.52
2023-01-23T08:11:18.206Z,1.51
2023-01-23T08:14:34.664Z,1.55
2023-01-23T08:17:51.156Z,1.57
2023-01-23T08:21:09.944Z,1.56
2023-01-23T08:24:42.257Z,1.59
2023-01-23T08:27:58.658Z,1.56
2023-01-23T08:31:19.005Z,1.59
2023-01-23T08:34:35.754Z,1.59
2023-01-23T08:37:52.162Z,1.59
2023-01-23T08:41:12.664Z,1.59
2023-01-23T08:44:32.276Z,1.56
2023-01-23T08:47:48.830Z,1.58
2023-01-23T08:51:14.095Z,1.60
2023-01-23T08:54:30.798Z,1.60
2023-01-23T08:57:47.183Z,1.59
2023-01-23T09:01:03.663Z,1.59
2023-01-23T09:04:20.727Z,1.59
2023-01-23T09:07:38.645Z,1.60
2023-01-23T09:10:55.359Z,1.46
2023-01-23T09:14:12.192Z,1.54
2023-01-23T09:17:28.992Z,1.60
2023-01-23T09:20:46.930Z,1.56
2023-01-23T09:24:04.466Z,1.51
2023-01-23T09:27:21.214Z,1.52
2023-01-23T09:30:38.187Z,1.51
2023-01-23T09:34:01.938Z,1.43
2023-01-23T09:37:18.526Z,1.41
2023-01-23T09:40:40.659Z,1.49
2023-01-23T09:44:03.850Z,1.58
2023-01-23T09:47:26.017Z,1.66
2023-01-23T09:50:46.415Z,1.65
2023-01-23T09:54:07.280Z,1.69
2023-01-23T09:57:29.696Z,1.70
2023-01-23T10:00:47.016Z,1.69
2023-01-23T10:04:04.405Z,1.72
2023-01-23T10:08:04.214Z,1.76
2023-01-23T10:11:26.144Z,1.64
2023-01-23T10:15:11.231Z,1.60
2023-01-23T10:18:34.639Z,1.60
2023-01-23T10:22:00.409Z,1.61
2023-01-23T10:25:33.277Z,1.75
2023-01-23T10:28:51.433Z,1.87
2023-01-23T10:32:09.997Z,1.93
2023-01-23T10:35:31.305Z,1.97
2023-01-23T10:38:54.266Z,1.97
2023-01-23T10:42:11.041Z,2.01
2023-01-23T10:45:30.020Z,2.03
2023-01-23T10:48:55.842Z,1.89
2023-01-23T10:52:13.339Z,1.87
2023-01-23T10:55:40.948Z,1.92
2023-01-23T10:58:58.271Z,1.99
2023-01-23T11:02:34.734Z,2.03
2023-01-23T11:05:53.719Z,2.03
2023-01-23T11:09:13.203Z,2.09
2023-01-23T11:12:32.993Z,2.11
2023-01-23T11:15:50.587Z,2.16
2023-01-23T11:19:18.445Z,2.21
2023-01-23T11:22:39.627Z,2.16
2023-01-23T11:25:58.226Z,2.22
2023-01-23T11:29:30.988Z,2.17
2023-01-23T11:32:52.448Z,2.09
2023-01-23T11:36:16.697Z,2.16
2023-01-23T11:39:48.271Z,2.18
2023-01-23T11:43:05.389Z,2.06
2023-01-23T11:46:50.758Z,1.98
2023-01-23T11:50:31.043Z,2.08
2023-01-23T11:53:53.195Z,2.08
2023-01-23T11:57:20.622Z,2.12
2023-01-23T12:00:45.538Z,2.16
2023-01-23T12:04:41.744Z,2.25
2023-01-23T12:08:06.343Z,2.25
2023-01-23T12:11:26.418Z,2.28
2023-01-23T12:14:48.486Z,2.28
2023-01-23T12:18:10.729Z,2.33
2023-01-23T12:21:33.082Z,2.36
2023-01-23T12:25:07.824Z,2.41
2023-01-23T12:28:36.764Z,2.42
2023-01-23T12:32:10.240Z,2.46
2023-01-23T12:35:48.540Z,2.49
2023-01-23T12:39:10.589Z,2.49
2023-01-23T12:42:32.811Z,2.49
2023-01-23T12:45:53.948Z,2.49
2023-01-23T12:49:31.824Z,2.47
2023-01-23T12:52:54.227Z,2.47
2023-01-23T12:56:15.763Z,2.49
2023-01-23T12:59:37.103Z,2.45
2023-01-23T13:02:58.917Z,2.47
2023-01-23T13:06:29.777Z,2.47
2023-01-23T13:09:58.227Z,2.41
2023-01-23T13:13:16.426Z,2.43
2023-01-23T13:16:36.453Z,2.45
2023-01-23T13:20:05.788Z,2.43
2023-01-23T13:23:37.229Z,2.40
2023-01-23T13:26:55.501Z,2.37
2023-01-23T13:30:20.401Z,2.38
2023-01-23T13:34:14.956Z,2.37
2023-01-23T13:37:57.787Z,2.36
2023-01-23T13:41:39.551Z,2.35
2023-01-23T13:45:34.081Z,2.34
2023-01-23T14:23:04.290Z,2.32
2023-01-23T14:26:26.797Z,2.32
2023-01-23T14:29:44.004Z,2.34
2023-01-23T14:33:00.568Z,2.32
2023-01-23T14:36:23.447Z,2.30
2023-01-23T14:39:44.090Z,2.33
2023-01-23T14:43:05.958Z,2.30
2023-01-23T14:46:30.728Z,2.31
2023-01-23T14:49:49.983Z,2.32
2023-01-23T14:53:12.837Z,2.34
2023-01-23T14:56:32.909Z,2.35
2023-01-23T14:59:51.381Z,2.31
2023-01-23T15:03:10.931Z,2.33
2023-01-23T15:06:31.213Z,2.30
2023-01-23T15:09:47.099Z,2.27
2023-01-23T15:13:09.877Z,2.27
2023-01-23T15:16:32.461Z,2.26
2023-01-23T15:19:50.092Z,2.24
2023-01-23T15:23:23.264Z,2.22
2023-01-23T15:26:44.611Z,2.17
2023-01-23T15:30:16.057Z,2.17
2023-01-23T15:33:39.093Z,2.14
2023-01-23T15:37:00.922Z,2.11
2023-01-23T15:40:32.778Z,2.08
2023-01-23T15:43:49.149Z,2.09
2023-01-23T15:47:06.224Z,2.07
2023-01-23T15:50:24.081Z,2.06
2023-01-23T15:53:40.548Z,2.08
2023-01-23T15:57:07.173Z,2.05
2023-01-23T16:00:25.754Z,2.07
2023-01-23T16:03:42.045Z,2.06
2023-01-23T16:06:59.236Z,2.06
2023-01-23T16:10:25.816Z,2.07
2023-01-23T16:13:42.804Z,2.07
2023-01-23T16:17:11.449Z,2.04
2023-01-23T16:20:23.434Z,2.02
2023-01-23T16:23:47.218Z,2.01
2023-01-23T16:27:01.988Z,2.03
2023-01-23T16:30:26.769Z,2.03
2023-01-23T16:33:43.106Z,2.01
2023-01-23T16:37:02.560Z,1.99
2023-01-23T16:40:27.870Z,1.95
2023-01-23T16:43:44.073Z,1.94
2023-01-23T16:47:01.222Z,1.91
2023-01-23T16:50:23.263Z,1.91
2023-01-23T16:53:43.755Z,1.91
2023-01-23T16:57:01.509Z,1.89
2023-01-23T17:00:34.468Z,1.90
2023-01-23T17:03:46.399Z,1.92
2023-01-23T17:07:04.782Z,1.94
2023-01-23T17:10:29.836Z,1.92
2023-01-23T17:13:44.886Z,1.91
2023-01-23T17:17:07.977Z,1.91
2023-01-23T17:20:29.460Z,1.90
2023-01-23T17:23:47.318Z,1.89
2023-01-23T17:27:03.176Z,1.86
2023-01-23T17:30:28.169Z,1.86
2023-01-23T17:33:45.638Z,1.82
2023-01-23T17:37:04.357Z,1.83
2023-01-23T17:40:23.300Z,1.80
2023-01-23T17:43:41.689Z,1.77
2023-01-23T17:46:58.456Z,1.76
2023-01-23T17:50:27.623Z,1.76
2023-01-23T17:53:44.071Z,1.74
2023-01-23T17:57:01.488Z,1.72
2023-01-23T18:00:24.052Z,1.72
2023-01-23T18:03:41.999Z,1.71
2023-01-23T18:06:59.160Z,1.69
2023-01-23T18:10:18.683Z,1.67
2023-01-23T18:13:41.469Z,1.65
2023-01-23T18:16:59.208Z,1.66
2023-01-23T18:20:28.777Z,1.71
2023-01-23T18:23:47.197Z,1.75
2023-01-23T18:27:07.703Z,1.75
2023-01-23T18:30:50.956Z,1.75
2023-01-23T18:34:21.321Z,1.77
2023-01-23T18:37:45.747Z,1.78
2023-01-23T18:41:14.216Z,1.77
2023-01-23T18:44:54.268Z,1.81
2023-01-23T18:48:24.716Z,1.81
2023-01-23T18:51:43.128Z,1.79
2023-01-23T18:55:07.103Z,1.80
2023-01-23T18:58:47.852Z,1.78
2023-01-23T19:02:07.295Z,1.78
2023-01-23T19:05:39.292Z,1.76
2023-01-23T19:08:57.380Z,1.71
2023-01-23T19:12:25.438Z,1.72
2023-01-23T19:15:42.327Z,1.71
2023-01-23T19:19:15.307Z,1.73
2023-01-23T19:22:26.565Z,1.74
2023-01-23T19:25:46.130Z,1.74
2023-01-23T19:29:19.965Z,1.74
2023-01-23T19:32:25.708Z,1.75
2023-01-23T19:35:42.188Z,1.72
2023-01-23T19:39:01.526Z,1.71
2023-01-23T19:42:21.048Z,1.71
2023-01-23T19:45:38.568Z,1.68
2023-01-23T19:48:56.469Z,1.70
2023-01-23T19:52:14.782Z,1.69
2023-01-23T19:55:35.428Z,1.70
2023-01-23T19:58:52.363Z,1.69
2023-01-23T20:02:08.906Z,1.67
2023-01-23T20:05:26.122Z,1.67
2023-01-23T20:08:42.797Z,1.66
2023-01-23T20:11:59.758Z,1.65
2023-01-23T20:15:20.104Z,1.69
2023-01-23T20:18:40.067Z,1.68
2023-01-23T20:22:01.305Z,1.68
2023-01-23T20:25:22.205Z,1.66
2023-01-23T20:28:39.509Z,1.66
2023-01-23T20:31:57.109Z,1.64
2023-01-23T20:35:15.525Z,1.64
2023-01-23T20:38:31.873Z,1.62
2023-01-23T20:41:48.353Z,1.63
2023-01-23T20:45:04.878Z,1.62
2023-01-23T20:48:21.369Z,1.61
2023-01-23T20:51:38.081Z,1.57
2023-01-23T20:54:56.085Z,1.58
2023-01-23T20:58:27.382Z,1.59
2023-01-23T21:02:01.342Z,1.58
2023-01-23T21:05:17.958Z,1.59
2023-01-23T21:08:38.247Z,1.60
2023-01-23T21:11:57.358Z,1.61
2023-01-23T21:15:17.348Z,1.66
2023-01-23T21:18:33.998Z,1.66
2023-01-23T21:21:51.671Z,1.69
2023-01-23T21:25:07.997Z,1.70
2023-01-23T21:28:24.111Z,1.73
2023-01-23T21:31:44.225Z,1.73
2023-01-23T21:35:00.862Z,1.75
2023-01-23T21:38:17.273Z,1.74
2023-01-23T21:41:33.803Z,1.76
2023-01-23T21:44:51.871Z,1.75
2023-01-23T21:48:08.913Z,1.74
2023-01-23T21:51:30.493Z,1.75
2023-01-23T21:54:46.687Z,1.72
2023-01-23T21:58:02.990Z,1.74
2023-01-23T22:01:41.352Z,1.77
2023-01-23T22:04:57.671Z,1.78
2023-01-23T22:08:14.402Z,1.78
2023-01-23T22:11:31.158Z,1.77
2023-01-23T22:14:47.520Z,1.73
2023-01-23T22:18:03.646Z,1.76
2023-01-23T22:21:20.533Z,1.76
2023-01-23T22:24:37.190Z,1.76
2023-01-23T22:27:53.534Z,1.76
2023-01-23T22:31:16.806Z,1.75
2023-01-23T22:34:33.214Z,1.76
2023-01-23T22:37:49.423Z,1.76
2023-01-23T22:41:10.667Z,1.78
2023-01-23T22:44:27.556Z,1.77
2023-01-23T22:47:43.671Z,1.76
2023-01-23T22:50:59.795Z,1.76
2023-01-23T22:54:15.926Z,1.75
2023-01-23T22:57:32.178Z,1.76
2023-01-23T23:00:51.403Z,1.78
2023-01-23T23:04:08.220Z,1.78
2023-01-23T23:07:24.361Z,1.77
2023-01-23T23:10:40.500Z,1.80
2023-01-23T23:13:57.556Z,1.81
2023-01-23T23:17:13.886Z,1.83
2023-01-23T23:20:30.113Z,1.83
2023-01-23T23:23:46.877Z,1.81
2023-01-23T23:27:03.221Z,1.83
2023-01-23T23:30:25.209Z,1.83
2023-01-23T23:33:41.440Z,1.84
2023-01-23T23:36:57.694Z,1.86
2023-01-23T23:40:17.116Z,1.84
2023-01-23T23:43:34.181Z,1.84
2023-01-23T23:46:50.249Z,1.83
2023-01-23T23:50:06.417Z,1.83
2023-01-23T23:53:23.113Z,1.84
2023-01-23T23:56:39.509Z,1.85
2023-01-23T23:59:55.939Z,1.82
